sensor_id;sensor_type;location;lat;lon;timestamp;P1;durP1;ratioP1;P2;durP2;ratioP2
12968;SDS011;6549;53.128;8.182;2022-08-23T00:00:26;4.63;;;2.90;;
12968;SDS011;6549;53.128;8.182;2022-08-23T00:03:26;7.00;;;3.72;;
12968;SDS011;6549;53.128;8.182;2022-08-23T00:06:27;6.20;;;3.08;;
12968;SDS011;6549;53.128;8.182;2022-08-23T00:09:28;6.13;;;3.42;;
12968;SDS011;6549;53.128;8.182;2022-08-23T00:12:29;5.63;;;3.25;;
12968;SDS011;6549;53.128;8.182;2022-08-23T00:15:29;8.13;;;3.90;;
12968;SDS011;6549;53.128;8.182;2022-08-23T00:18:29;8.98;;;3.90;;
12968;SDS011;6549;53.128;8.182;2022-08-23T00:21:30;6.40;;;3.53;;
12968;SDS011;6549;53.128;8.182;2022-08-23T00:24:30;5.28;;;3.40;;
12968;SDS011;6549;53.128;8.182;2022-08-23T00:27:30;8.15;;;3.72;;
12968;SDS011;6549;53.128;8.182;2022-08-23T00:30:32;6.50;;;3.17;;
12968;SDS011;6549;53.128;8.182;2022-08-23T00:33:32;6.55;;;3.20;;
12968;SDS011;6549;53.128;8.182;2022-08-23T00:36:33;7.18;;;3.20;;
12968;SDS011;6549;53.128;8.182;2022-08-23T00:39:33;4.97;;;3.17;;
12968;SDS011;6549;53.128;8.182;2022-08-23T00:46:41;4.85;;;3.10;;
12968;SDS011;6549;53.128;8.182;2022-08-23T00:53:07;4.53;;;3.28;;
12968;SDS011;6549;53.128;8.182;2022-08-23T00:56:14;5.35;;;3.45;;
12968;SDS011;6549;53.128;8.182;2022-08-23T00:59:17;4.47;;;2.80;;
12968;SDS011;6549;53.128;8.182;2022-08-23T01:02:18;3.35;;;2.63;;
12968;SDS011;6549;53.128;8.182;2022-08-23T01:05:20;3.88;;;3.08;;
12968;SDS011;6549;53.128;8.182;2022-08-23T01:08:25;5.47;;;3.08;;
12968;SDS011;6549;53.128;8.182;2022-08-23T01:11:33;4.43;;;2.95;;
12968;SDS011;6549;53.128;8.182;2022-08-23T01:14:42;3.25;;;2.50;;
12968;SDS011;6549;53.128;8.182;2022-08-23T01:17:48;4.45;;;3.15;;
12968;SDS011;6549;53.128;8.182;2022-08-23T01:20:54;3.50;;;2.70;;
12968;SDS011;6549;53.128;8.182;2022-08-23T01:24:00;5.45;;;3.13;;
12968;SDS011;6549;53.128;8.182;2022-08-23T01:27:03;4.38;;;2.58;;
12968;SDS011;6549;53.128;8.182;2022-08-23T01:30:04;4.60;;;2.95;;
12968;SDS011;6549;53.128;8.182;2022-08-23T01:33:07;4.30;;;3.00;;
12968;SDS011;6549;53.128;8.182;2022-08-23T01:36:11;4.68;;;3.10;;
12968;SDS011;6549;53.128;8.182;2022-08-23T01:39:13;5.18;;;3.00;;
12968;SDS011;6549;53.128;8.182;2022-08-23T01:42:13;4.97;;;3.20;;
12968;SDS011;6549;53.128;8.182;2022-08-23T01:45:13;4.40;;;3.10;;
12968;SDS011;6549;53.128;8.182;2022-08-23T01:48:14;4.53;;;2.90;;
12968;SDS011;6549;53.128;8.182;2022-08-23T01:51:17;4.57;;;3.00;;
12968;SDS011;6549;53.128;8.182;2022-08-23T01:54:18;3.92;;;3.00;;
12968;SDS011;6549;53.128;8.182;2022-08-23T01:57:19;4.78;;;2.90;;
12968;SDS011;6549;53.128;8.182;2022-08-23T02:00:20;6.18;;;3.42;;
12968;SDS011;6549;53.128;8.182;2022-08-23T02:03:23;4.60;;;2.95;;
12968;SDS011;6549;53.128;8.182;2022-08-23T02:06:24;4.63;;;2.80;;
12968;SDS011;6549;53.128;8.182;2022-08-23T02:09:24;6.63;;;3.25;;
12968;SDS011;6549;53.128;8.182;2022-08-23T02:12:24;5.03;;;3.00;;
12968;SDS011;6549;53.128;8.182;2022-08-23T02:15:25;4.72;;;3.03;;
12968;SDS011;6549;53.128;8.182;2022-08-23T02:18:25;3.60;;;2.67;;
12968;SDS011;6549;53.128;8.182;2022-08-23T02:21:25;4.68;;;2.85;;
12968;SDS011;6549;53.128;8.182;2022-08-23T02:24:26;4.07;;;2.83;;
12968;SDS011;6549;53.128;8.182;2022-08-23T02:27:26;3.60;;;2.55;;
12968;SDS011;6549;53.128;8.182;2022-08-23T02:30:27;3.28;;;2.90;;
12968;SDS011;6549;53.128;8.182;2022-08-23T02:33:27;3.55;;;2.83;;
12968;SDS011;6549;53.128;8.182;2022-08-23T02:36:27;3.85;;;2.90;;
12968;SDS011;6549;53.128;8.182;2022-08-23T02:39:28;3.83;;;2.85;;
12968;SDS011;6549;53.128;8.182;2022-08-23T02:42:29;5.75;;;3.00;;
12968;SDS011;6549;53.128;8.182;2022-08-23T02:45:29;3.25;;;2.75;;
12968;SDS011;6549;53.128;8.182;2022-08-23T02:48:29;3.60;;;2.97;;
12968;SDS011;6549;53.128;8.182;2022-08-23T02:51:31;3.33;;;2.65;;
12968;SDS011;6549;53.128;8.182;2022-08-23T02:54:32;3.45;;;2.70;;
12968;SDS011;6549;53.128;8.182;2022-08-23T02:57:33;3.35;;;2.83;;
12968;SDS011;6549;53.128;8.182;2022-08-23T03:00:34;4.53;;;3.45;;
12968;SDS011;6549;53.128;8.182;2022-08-23T03:03:34;3.30;;;3.00;;
12968;SDS011;6549;53.128;8.182;2022-08-23T03:06:35;4.97;;;3.20;;
12968;SDS011;6549;53.128;8.182;2022-08-23T03:09:36;3.58;;;2.92;;
12968;SDS011;6549;53.128;8.182;2022-08-23T03:12:37;4.43;;;4.03;;
12968;SDS011;6549;53.128;8.182;2022-08-23T03:15:38;4.07;;;3.35;;
12968;SDS011;6549;53.128;8.182;2022-08-23T03:18:39;3.97;;;3.27;;
12968;SDS011;6549;53.128;8.182;2022-08-23T03:21:39;4.72;;;3.60;;
12968;SDS011;6549;53.128;8.182;2022-08-23T03:24:42;5.85;;;3.67;;
12968;SDS011;6549;53.128;8.182;2022-08-23T03:27:42;3.72;;;3.30;;
12968;SDS011;6549;53.128;8.182;2022-08-23T03:30:42;3.47;;;3.17;;
12968;SDS011;6549;53.128;8.182;2022-08-23T03:33:43;4.13;;;3.50;;
12968;SDS011;6549;53.128;8.182;2022-08-23T03:36:43;3.58;;;3.08;;
12968;SDS011;6549;53.128;8.182;2022-08-23T03:39:43;6.63;;;3.60;;
12968;SDS011;6549;53.128;8.182;2022-08-23T03:42:44;4.53;;;3.83;;
12968;SDS011;6549;53.128;8.182;2022-08-23T03:45:44;4.32;;;3.60;;
12968;SDS011;6549;53.128;8.182;2022-08-23T03:48:45;4.68;;;3.92;;
12968;SDS011;6549;53.128;8.182;2022-08-23T03:51:46;4.15;;;3.53;;
12968;SDS011;6549;53.128;8.182;2022-08-23T03:54:46;4.55;;;3.60;;
12968;SDS011;6549;53.128;8.182;2022-08-23T03:57:46;4.20;;;3.80;;
12968;SDS011;6549;53.128;8.182;2022-08-23T04:00:48;4.95;;;3.30;;
12968;SDS011;6549;53.128;8.182;2022-08-23T04:03:48;5.00;;;3.80;;
12968;SDS011;6549;53.128;8.182;2022-08-23T04:06:48;3.88;;;3.47;;
12968;SDS011;6549;53.128;8.182;2022-08-23T04:09:49;4.40;;;3.60;;
12968;SDS011;6549;53.128;8.182;2022-08-23T04:12:49;3.78;;;3.38;;
12968;SDS011;6549;53.128;8.182;2022-08-23T04:15:51;4.53;;;3.13;;
12968;SDS011;6549;53.128;8.182;2022-08-23T04:18:51;5.22;;;3.50;;
12968;SDS011;6549;53.128;8.182;2022-08-23T04:21:52;4.25;;;3.65;;
12968;SDS011;6549;53.128;8.182;2022-08-23T04:24:52;5.43;;;3.70;;
12968;SDS011;6549;53.128;8.182;2022-08-23T04:27:54;5.63;;;3.90;;
12968;SDS011;6549;53.128;8.182;2022-08-23T04:30:55;6.30;;;3.70;;
12968;SDS011;6549;53.128;8.182;2022-08-23T04:33:59;4.38;;;3.83;;
12968;SDS011;6549;53.128;8.182;2022-08-23T04:37:00;4.13;;;3.50;;
12968;SDS011;6549;53.128;8.182;2022-08-23T04:40:00;5.70;;;3.80;;
12968;SDS011;6549;53.128;8.182;2022-08-23T04:43:19;4.70;;;3.78;;
12968;SDS011;6549;53.128;8.182;2022-08-23T04:46:20;5.40;;;3.92;;
12968;SDS011;6549;53.128;8.182;2022-08-23T04:49:20;4.35;;;3.30;;
12968;SDS011;6549;53.128;8.182;2022-08-23T04:52:22;5.57;;;4.05;;
12968;SDS011;6549;53.128;8.182;2022-08-23T04:55:22;4.75;;;3.67;;
12968;SDS011;6549;53.128;8.182;2022-08-23T04:58:22;5.53;;;4.25;;
12968;SDS011;6549;53.128;8.182;2022-08-23T05:01:23;6.32;;;4.30;;
12968;SDS011;6549;53.128;8.182;2022-08-23T05:04:24;5.55;;;4.10;;
12968;SDS011;6549;53.128;8.182;2022-08-23T05:07:24;4.72;;;4.10;;
12968;SDS011;6549;53.128;8.182;2022-08-23T05:10:25;6.43;;;4.22;;
12968;SDS011;6549;53.128;8.182;2022-08-23T05:13:25;5.70;;;4.10;;
12968;SDS011;6549;53.128;8.182;2022-08-23T05:16:25;4.93;;;3.90;;
12968;SDS011;6549;53.128;8.182;2022-08-23T05:19:26;6.60;;;4.50;;
12968;SDS011;6549;53.128;8.182;2022-08-23T05:22:26;8.50;;;4.43;;
12968;SDS011;6549;53.128;8.182;2022-08-23T05:25:27;7.15;;;5.68;;
12968;SDS011;6549;53.128;8.182;2022-08-23T05:28:48;6.63;;;4.53;;
12968;SDS011;6549;53.128;8.182;2022-08-23T05:31:49;9.00;;;5.30;;
12968;SDS011;6549;53.128;8.182;2022-08-23T05:34:49;6.70;;;4.45;;
12968;SDS011;6549;53.128;8.182;2022-08-23T05:37:50;9.07;;;4.65;;
12968;SDS011;6549;53.128;8.182;2022-08-23T05:40:51;5.70;;;4.57;;
12968;SDS011;6549;53.128;8.182;2022-08-23T05:43:53;6.35;;;4.63;;
12968;SDS011;6549;53.128;8.182;2022-08-23T05:46:53;11.77;;;4.85;;
12968;SDS011;6549;53.128;8.182;2022-08-23T05:49:54;5.50;;;3.92;;
12968;SDS011;6549;53.128;8.182;2022-08-23T05:52:55;8.75;;;4.57;;
12968;SDS011;6549;53.128;8.182;2022-08-23T05:55:56;10.75;;;5.35;;
12968;SDS011;6549;53.128;8.182;2022-08-23T05:58:57;6.32;;;4.60;;
12968;SDS011;6549;53.128;8.182;2022-08-23T06:01:59;7.22;;;4.53;;
12968;SDS011;6549;53.128;8.182;2022-08-23T06:05:00;6.38;;;4.95;;
12968;SDS011;6549;53.128;8.182;2022-08-23T06:08:01;5.70;;;4.15;;
12968;SDS011;6549;53.128;8.182;2022-08-23T06:11:02;4.22;;;3.60;;
12968;SDS011;6549;53.128;8.182;2022-08-23T06:14:05;9.07;;;4.60;;
12968;SDS011;6549;53.128;8.182;2022-08-23T06:17:06;9.60;;;4.72;;
12968;SDS011;6549;53.128;8.182;2022-08-23T06:20:07;7.07;;;4.90;;
12968;SDS011;6549;53.128;8.182;2022-08-23T06:23:08;8.13;;;3.78;;
12968;SDS011;6549;53.128;8.182;2022-08-23T06:26:12;6.63;;;3.88;;
12968;SDS011;6549;53.128;8.182;2022-08-23T06:29:21;10.07;;;4.60;;
12968;SDS011;6549;53.128;8.182;2022-08-23T06:32:21;9.02;;;4.13;;
12968;SDS011;6549;53.128;8.182;2022-08-23T06:35:22;9.15;;;4.50;;
12968;SDS011;6549;53.128;8.182;2022-08-23T06:38:22;6.65;;;4.03;;
12968;SDS011;6549;53.128;8.182;2022-08-23T06:41:23;7.03;;;3.90;;
12968;SDS011;6549;53.128;8.182;2022-08-23T06:44:23;6.43;;;4.07;;
12968;SDS011;6549;53.128;8.182;2022-08-23T06:47:24;6.97;;;3.30;;
12968;SDS011;6549;53.128;8.182;2022-08-23T06:50:24;6.15;;;3.25;;
12968;SDS011;6549;53.128;8.182;2022-08-23T06:53:24;5.32;;;3.60;;
12968;SDS011;6549;53.128;8.182;2022-08-23T06:56:25;7.55;;;4.07;;
12968;SDS011;6549;53.128;8.182;2022-08-23T06:59:26;8.38;;;3.60;;
12968;SDS011;6549;53.128;8.182;2022-08-23T07:02:27;7.75;;;3.90;;
12968;SDS011;6549;53.128;8.182;2022-08-23T07:05:27;6.65;;;3.78;;
12968;SDS011;6549;53.128;8.182;2022-08-23T07:08:28;6.53;;;3.80;;
12968;SDS011;6549;53.128;8.182;2022-08-23T07:11:28;8.65;;;4.13;;
12968;SDS011;6549;53.128;8.182;2022-08-23T07:14:32;7.38;;;3.80;;
12968;SDS011;6549;53.128;8.182;2022-08-23T07:17:32;7.47;;;4.03;;
12968;SDS011;6549;53.128;8.182;2022-08-23T07:20:33;6.45;;;3.63;;
12968;SDS011;6549;53.128;8.182;2022-08-23T07:23:33;6.47;;;3.25;;
12968;SDS011;6549;53.128;8.182;2022-08-23T07:26:34;6.55;;;3.63;;
12968;SDS011;6549;53.128;8.182;2022-08-23T07:29:36;7.95;;;3.50;;
12968;SDS011;6549;53.128;8.182;2022-08-23T07:32:38;8.02;;;3.22;;
12968;SDS011;6549;53.128;8.182;2022-08-23T07:35:45;7.15;;;3.38;;
12968;SDS011;6549;53.128;8.182;2022-08-23T07:38:49;6.47;;;3.45;;
12968;SDS011;6549;53.128;8.182;2022-08-23T07:41:49;6.00;;;3.60;;
12968;SDS011;6549;53.128;8.182;2022-08-23T07:44:51;6.80;;;3.30;;
12968;SDS011;6549;53.128;8.182;2022-08-23T07:47:52;7.15;;;3.42;;
12968;SDS011;6549;53.128;8.182;2022-08-23T07:50:54;5.03;;;3.13;;
12968;SDS011;6549;53.128;8.182;2022-08-23T07:54:00;7.32;;;3.50;;
12968;SDS011;6549;53.128;8.182;2022-08-23T07:57:04;5.55;;;3.28;;
12968;SDS011;6549;53.128;8.182;2022-08-23T08:00:05;5.05;;;2.80;;
12968;SDS011;6549;53.128;8.182;2022-08-23T08:03:06;6.60;;;3.38;;
12968;SDS011;6549;53.128;8.182;2022-08-23T08:06:07;5.50;;;3.10;;
12968;SDS011;6549;53.128;8.182;2022-08-23T08:09:11;5.72;;;3.22;;
12968;SDS011;6549;53.128;8.182;2022-08-23T08:12:14;5.38;;;3.10;;
12968;SDS011;6549;53.128;8.182;2022-08-23T08:15:14;6.20;;;3.10;;
12968;SDS011;6549;53.128;8.182;2022-08-23T08:18:16;5.20;;;2.72;;
12968;SDS011;6549;53.128;8.182;2022-08-23T08:21:17;6.13;;;3.15;;
12968;SDS011;6549;53.128;8.182;2022-08-23T08:24:18;6.82;;;2.92;;
12968;SDS011;6549;53.128;8.182;2022-08-23T08:27:18;7.68;;;2.90;;
12968;SDS011;6549;53.128;8.182;2022-08-23T08:30:18;6.25;;;3.08;;
12968;SDS011;6549;53.128;8.182;2022-08-23T08:33:19;5.65;;;3.15;;
12968;SDS011;6549;53.128;8.182;2022-08-23T08:36:34;9.73;;;2.97;;
12968;SDS011;6549;53.128;8.182;2022-08-23T08:39:34;9.95;;;3.10;;
12968;SDS011;6549;53.128;8.182;2022-08-23T08:48:57;7.88;;;2.80;;
12968;SDS011;6549;53.128;8.182;2022-08-23T08:55:20;4.35;;;2.45;;
12968;SDS011;6549;53.128;8.182;2022-08-23T08:58:25;7.25;;;2.90;;
12968;SDS011;6549;53.128;8.182;2022-08-23T09:01:32;7.78;;;2.90;;
12968;SDS011;6549;53.128;8.182;2022-08-23T09:04:35;6.75;;;2.75;;
12968;SDS011;6549;53.128;8.182;2022-08-23T09:07:48;6.38;;;2.60;;
12968;SDS011;6549;53.128;8.182;2022-08-23T09:17:47;4.65;;;2.45;;
12968;SDS011;6549;53.128;8.182;2022-08-23T09:20:51;7.95;;;3.10;;
12968;SDS011;6549;53.128;8.182;2022-08-23T09:23:53;4.88;;;2.42;;
12968;SDS011;6549;53.128;8.182;2022-08-23T09:26:53;5.43;;;2.67;;
12968;SDS011;6549;53.128;8.182;2022-08-23T09:29:55;4.28;;;2.63;;
12968;SDS011;6549;53.128;8.182;2022-08-23T09:32:57;6.18;;;2.50;;
12968;SDS011;6549;53.128;8.182;2022-08-23T09:36:16;7.38;;;2.80;;
12968;SDS011;6549;53.128;8.182;2022-08-23T09:45:36;6.97;;;2.25;;
12968;SDS011;6549;53.128;8.182;2022-08-23T09:48:40;4.20;;;2.20;;
12968;SDS011;6549;53.128;8.182;2022-08-23T09:51:44;9.70;;;2.53;;
12968;SDS011;6549;53.128;8.182;2022-08-23T09:54:52;6.82;;;2.42;;
12968;SDS011;6549;53.128;8.182;2022-08-23T09:57:56;7.68;;;2.40;;
12968;SDS011;6549;53.128;8.182;2022-08-23T10:01:09;4.30;;;2.33;;
12968;SDS011;6549;53.128;8.182;2022-08-23T10:04:14;6.00;;;2.70;;
12968;SDS011;6549;53.128;8.182;2022-08-23T10:10:44;7.68;;;2.20;;
12968;SDS011;6549;53.128;8.182;2022-08-23T10:13:48;4.70;;;2.47;;
12968;SDS011;6549;53.128;8.182;2022-08-23T10:20:32;4.65;;;2.38;;
12968;SDS011;6549;53.128;8.182;2022-08-23T10:23:43;8.40;;;2.90;;
12968;SDS011;6549;53.128;8.182;2022-08-23T10:27:02;4.43;;;2.45;;
12968;SDS011;6549;53.128;8.182;2022-08-23T10:30:37;4.68;;;2.40;;
12968;SDS011;6549;53.128;8.182;2022-08-23T10:33:51;3.58;;;2.30;;
12968;SDS011;6549;53.128;8.182;2022-08-23T10:37:04;5.28;;;2.22;;
12968;SDS011;6549;53.128;8.182;2022-08-23T10:40:34;6.47;;;2.80;;
12968;SDS011;6549;53.128;8.182;2022-08-23T10:50:08;5.30;;;2.50;;
12968;SDS011;6549;53.128;8.182;2022-08-23T10:53:15;4.07;;;2.20;;
12968;SDS011;6549;53.128;8.182;2022-08-23T10:56:17;3.47;;;2.40;;
12968;SDS011;6549;53.128;8.182;2022-08-23T10:59:20;5.43;;;2.30;;
12968;SDS011;6549;53.128;8.182;2022-08-23T11:02:43;5.10;;;2.30;;
12968;SDS011;6549;53.128;8.182;2022-08-23T11:09:48;4.82;;;2.10;;
12968;SDS011;6549;53.128;8.182;2022-08-23T11:16:00;5.35;;;2.50;;
12968;SDS011;6549;53.128;8.182;2022-08-23T11:19:09;5.05;;;2.47;;
12968;SDS011;6549;53.128;8.182;2022-08-23T11:23:09;8.82;;;2.45;;
12968;SDS011;6549;53.128;8.182;2022-08-23T11:25:56;6.43;;;2.40;;
12968;SDS011;6549;53.128;8.182;2022-08-23T11:35:27;4.75;;;2.50;;
12968;SDS011;6549;53.128;8.182;2022-08-23T11:44:54;4.85;;;2.10;;
12968;SDS011;6549;53.128;8.182;2022-08-23T12:19:27;4.93;;;2.73;;
12968;SDS011;6549;53.128;8.182;2022-08-23T12:22:51;6.95;;;2.47;;
12968;SDS011;6549;53.128;8.182;2022-08-23T12:26:25;3.08;;;2.20;;
12968;SDS011;6549;53.128;8.182;2022-08-23T12:39:50;4.57;;;2.35;;
12968;SDS011;6549;53.128;8.182;2022-08-23T12:43:01;5.00;;;2.55;;
12968;SDS011;6549;53.128;8.182;2022-08-23T12:46:32;7.88;;;2.38;;
12968;SDS011;6549;53.128;8.182;2022-08-23T12:49:35;5.80;;;2.55;;
12968;SDS011;6549;53.128;8.182;2022-08-23T12:52:36;5.47;;;2.30;;
12968;SDS011;6549;53.128;8.182;2022-08-23T12:55:39;5.67;;;2.50;;
12968;SDS011;6549;53.128;8.182;2022-08-23T12:58:44;3.00;;;2.20;;
12968;SDS011;6549;53.128;8.182;2022-08-23T13:01:50;4.43;;;2.30;;
12968;SDS011;6549;53.128;8.182;2022-08-23T13:04:51;6.30;;;2.37;;
12968;SDS011;6549;53.128;8.182;2022-08-23T13:07:58;5.25;;;2.20;;
12968;SDS011;6549;53.128;8.182;2022-08-23T13:11:03;6.30;;;2.50;;
12968;SDS011;6549;53.128;8.182;2022-08-23T13:14:20;4.55;;;2.28;;
12968;SDS011;6549;53.128;8.182;2022-08-23T13:17:41;6.03;;;2.20;;
12968;SDS011;6549;53.128;8.182;2022-08-23T13:20:41;4.50;;;2.20;;
12968;SDS011;6549;53.128;8.182;2022-08-23T13:23:42;5.40;;;2.50;;
12968;SDS011;6549;53.128;8.182;2022-08-23T13:26:42;5.23;;;2.20;;
12968;SDS011;6549;53.128;8.182;2022-08-23T13:29:47;5.13;;;2.67;;
12968;SDS011;6549;53.128;8.182;2022-08-23T13:36:07;5.17;;;2.30;;
12968;SDS011;6549;53.128;8.182;2022-08-23T13:39:07;4.72;;;2.50;;
12968;SDS011;6549;53.128;8.182;2022-08-23T13:42:08;4.63;;;2.50;;
12968;SDS011;6549;53.128;8.182;2022-08-23T13:45:14;7.05;;;2.28;;
12968;SDS011;6549;53.128;8.182;2022-08-23T13:48:20;5.75;;;2.50;;
12968;SDS011;6549;53.128;8.182;2022-08-23T13:51:27;3.30;;;2.10;;
12968;SDS011;6549;53.128;8.182;2022-08-23T13:54:30;3.45;;;2.22;;
12968;SDS011;6549;53.128;8.182;2022-08-23T13:57:32;2.95;;;2.05;;
12968;SDS011;6549;53.128;8.182;2022-08-23T14:00:36;3.45;;;2.10;;
12968;SDS011;6549;53.128;8.182;2022-08-23T14:03:36;3.80;;;2.37;;
12968;SDS011;6549;53.128;8.182;2022-08-23T14:06:37;5.20;;;2.23;;
12968;SDS011;6549;53.128;8.182;2022-08-23T14:09:37;5.00;;;2.30;;
12968;SDS011;6549;53.128;8.182;2022-08-23T14:12:38;2.87;;;2.20;;
12968;SDS011;6549;53.128;8.182;2022-08-23T14:15:43;5.05;;;2.42;;
12968;SDS011;6549;53.128;8.182;2022-08-23T14:18:44;5.43;;;2.33;;
12968;SDS011;6549;53.128;8.182;2022-08-23T14:21:44;3.60;;;2.20;;
12968;SDS011;6549;53.128;8.182;2022-08-23T14:24:45;4.03;;;2.20;;
12968;SDS011;6549;53.128;8.182;2022-08-23T14:27:46;4.90;;;2.33;;
12968;SDS011;6549;53.128;8.182;2022-08-23T14:30:47;4.75;;;2.33;;
12968;SDS011;6549;53.128;8.182;2022-08-23T14:33:47;4.90;;;2.20;;
12968;SDS011;6549;53.128;8.182;2022-08-23T14:36:48;4.93;;;2.33;;
12968;SDS011;6549;53.128;8.182;2022-08-23T14:39:50;4.35;;;2.20;;
12968;SDS011;6549;53.128;8.182;2022-08-23T14:42:51;8.43;;;2.43;;
12968;SDS011;6549;53.128;8.182;2022-08-23T14:45:52;6.85;;;2.30;;
12968;SDS011;6549;53.128;8.182;2022-08-23T14:48:53;5.90;;;2.53;;
12968;SDS011;6549;53.128;8.182;2022-08-23T14:51:53;3.10;;;2.07;;
12968;SDS011;6549;53.128;8.182;2022-08-23T14:54:54;3.47;;;2.60;;
12968;SDS011;6549;53.128;8.182;2022-08-23T14:57:54;4.40;;;2.30;;
12968;SDS011;6549;53.128;8.182;2022-08-23T15:00:54;5.10;;;2.37;;
12968;SDS011;6549;53.128;8.182;2022-08-23T15:03:55;3.57;;;2.37;;
12968;SDS011;6549;53.128;8.182;2022-08-23T15:06:55;4.73;;;2.27;;
12968;SDS011;6549;53.128;8.182;2022-08-23T15:09:56;4.28;;;2.20;;
12968;SDS011;6549;53.128;8.182;2022-08-23T15:12:57;2.77;;;1.80;;
12968;SDS011;6549;53.128;8.182;2022-08-23T15:15:57;4.80;;;2.30;;
12968;SDS011;6549;53.128;8.182;2022-08-23T15:18:58;3.85;;;2.10;;
12968;SDS011;6549;53.128;8.182;2022-08-23T15:21:59;4.70;;;2.40;;
12968;SDS011;6549;53.128;8.182;2022-08-23T15:24:59;6.60;;;2.50;;
12968;SDS011;6549;53.128;8.182;2022-08-23T15:27:59;5.10;;;2.17;;
12968;SDS011;6549;53.128;8.182;2022-08-23T15:31:03;3.58;;;2.20;;
12968;SDS011;6549;53.128;8.182;2022-08-23T15:34:04;4.33;;;2.17;;
12968;SDS011;6549;53.128;8.182;2022-08-23T15:37:04;4.37;;;2.37;;
12968;SDS011;6549;53.128;8.182;2022-08-23T15:40:05;5.90;;;2.50;;
12968;SDS011;6549;53.128;8.182;2022-08-23T15:43:07;3.38;;;2.25;;
12968;SDS011;6549;53.128;8.182;2022-08-23T15:46:15;2.83;;;2.20;;
12968;SDS011;6549;53.128;8.182;2022-08-23T15:49:17;3.53;;;2.00;;
12968;SDS011;6549;53.128;8.182;2022-08-23T15:52:19;3.47;;;2.30;;
12968;SDS011;6549;53.128;8.182;2022-08-23T15:55:19;2.83;;;2.03;;
12968;SDS011;6549;53.128;8.182;2022-08-23T15:58:21;3.47;;;2.10;;
12968;SDS011;6549;53.128;8.182;2022-08-23T16:01:24;3.90;;;2.30;;
12968;SDS011;6549;53.128;8.182;2022-08-23T16:04:27;3.92;;;2.00;;
12968;SDS011;6549;53.128;8.182;2022-08-23T16:07:28;4.50;;;2.40;;
12968;SDS011;6549;53.128;8.182;2022-08-23T16:10:28;4.03;;;2.10;;
12968;SDS011;6549;53.128;8.182;2022-08-23T16:13:28;3.90;;;2.27;;
12968;SDS011;6549;53.128;8.182;2022-08-23T16:16:29;5.90;;;2.20;;
12968;SDS011;6549;53.128;8.182;2022-08-23T16:19:32;3.38;;;2.10;;
12968;SDS011;6549;53.128;8.182;2022-08-23T16:22:33;3.97;;;2.20;;
12968;SDS011;6549;53.128;8.182;2022-08-23T16:25:33;5.80;;;2.40;;
12968;SDS011;6549;53.128;8.182;2022-08-23T16:28:33;4.87;;;2.37;;
12968;SDS011;6549;53.128;8.182;2022-08-23T16:31:34;4.20;;;2.50;;
12968;SDS011;6549;53.128;8.182;2022-08-23T16:34:36;4.90;;;2.67;;
12968;SDS011;6549;53.128;8.182;2022-08-23T16:37:36;4.73;;;2.40;;
12968;SDS011;6549;53.128;8.182;2022-08-23T16:40:37;3.60;;;2.27;;
12968;SDS011;6549;53.128;8.182;2022-08-23T16:43:37;5.03;;;2.27;;
12968;SDS011;6549;53.128;8.182;2022-08-23T16:46:37;4.80;;;2.37;;
12968;SDS011;6549;53.128;8.182;2022-08-23T16:49:42;4.40;;;2.40;;
12968;SDS011;6549;53.128;8.182;2022-08-23T16:52:43;4.63;;;2.40;;
12968;SDS011;6549;53.128;8.182;2022-08-23T16:55:43;3.67;;;2.30;;
12968;SDS011;6549;53.128;8.182;2022-08-23T16:58:43;4.43;;;2.50;;
12968;SDS011;6549;53.128;8.182;2022-08-23T17:01:45;3.80;;;2.40;;
12968;SDS011;6549;53.128;8.182;2022-08-23T17:04:47;4.70;;;2.40;;
12968;SDS011;6549;53.128;8.182;2022-08-23T17:07:47;6.67;;;2.40;;
12968;SDS011;6549;53.128;8.182;2022-08-23T17:10:49;4.90;;;2.25;;
12968;SDS011;6549;53.128;8.182;2022-08-23T17:13:49;3.83;;;2.20;;
12968;SDS011;6549;53.128;8.182;2022-08-23T17:16:49;4.23;;;2.30;;
12968;SDS011;6549;53.128;8.182;2022-08-23T17:19:50;4.90;;;2.27;;
12968;SDS011;6549;53.128;8.182;2022-08-23T17:22:50;4.47;;;2.57;;
12968;SDS011;6549;53.128;8.182;2022-08-23T17:28:52;4.07;;;2.47;;
12968;SDS011;6549;53.128;8.182;2022-08-23T17:31:55;4.72;;;2.50;;
12968;SDS011;6549;53.128;8.182;2022-08-23T17:34:56;5.20;;;2.43;;
12968;SDS011;6549;53.128;8.182;2022-08-23T17:37:57;3.33;;;2.20;;
12968;SDS011;6549;53.128;8.182;2022-08-23T17:40:58;4.82;;;2.58;;
12968;SDS011;6549;53.128;8.182;2022-08-23T17:43:58;5.83;;;2.70;;
12968;SDS011;6549;53.128;8.182;2022-08-23T17:46:59;4.55;;;2.30;;
12968;SDS011;6549;53.128;8.182;2022-08-23T17:49:59;4.28;;;2.58;;
12968;SDS011;6549;53.128;8.182;2022-08-23T17:53:01;5.13;;;2.33;;
12968;SDS011;6549;53.128;8.182;2022-08-23T17:56:03;7.30;;;2.30;;
12968;SDS011;6549;53.128;8.182;2022-08-23T17:59:03;3.10;;;2.15;;
12968;SDS011;6549;53.128;8.182;2022-08-23T18:02:04;4.88;;;2.30;;
12968;SDS011;6549;53.128;8.182;2022-08-23T18:05:05;9.60;;;2.33;;
12968;SDS011;6549;53.128;8.182;2022-08-23T18:08:06;4.85;;;2.50;;
12968;SDS011;6549;53.128;8.182;2022-08-23T18:11:08;5.88;;;2.33;;
12968;SDS011;6549;53.128;8.182;2022-08-23T18:14:08;3.17;;;2.13;;
12968;SDS011;6549;53.128;8.182;2022-08-23T18:17:09;3.17;;;2.10;;
12968;SDS011;6549;53.128;8.182;2022-08-23T18:20:09;5.00;;;2.20;;
12968;SDS011;6549;53.128;8.182;2022-08-23T18:23:10;3.87;;;2.27;;
12968;SDS011;6549;53.128;8.182;2022-08-23T18:26:12;3.92;;;2.10;;
12968;SDS011;6549;53.128;8.182;2022-08-23T18:29:33;4.70;;;2.10;;
12968;SDS011;6549;53.128;8.182;2022-08-23T18:32:35;3.70;;;1.90;;
12968;SDS011;6549;53.128;8.182;2022-08-23T18:35:36;5.80;;;2.08;;
12968;SDS011;6549;53.128;8.182;2022-08-23T18:38:36;6.37;;;1.73;;
12968;SDS011;6549;53.128;8.182;2022-08-23T18:41:36;4.23;;;2.10;;
12968;SDS011;6549;53.128;8.182;2022-08-23T18:44:37;4.40;;;2.25;;
12968;SDS011;6549;53.128;8.182;2022-08-23T18:47:37;2.78;;;1.70;;
12968;SDS011;6549;53.128;8.182;2022-08-23T18:50:39;4.03;;;2.13;;
12968;SDS011;6549;53.128;8.182;2022-08-23T18:53:40;3.90;;;2.10;;
12968;SDS011;6549;53.128;8.182;2022-08-23T18:56:40;1.85;;;1.63;;
12968;SDS011;6549;53.128;8.182;2022-08-23T18:59:41;3.40;;;2.00;;
12968;SDS011;6549;53.128;8.182;2022-08-23T19:02:41;2.25;;;1.67;;
12968;SDS011;6549;53.128;8.182;2022-08-23T19:05:41;4.20;;;1.90;;
12968;SDS011;6549;53.128;8.182;2022-08-23T19:08:42;4.32;;;2.10;;
12968;SDS011;6549;53.128;8.182;2022-08-23T19:11:42;2.72;;;1.98;;
12968;SDS011;6549;53.128;8.182;2022-08-23T19:14:43;7.13;;;2.20;;
12968;SDS011;6549;53.128;8.182;2022-08-23T19:17:43;2.72;;;1.70;;
12968;SDS011;6549;53.128;8.182;2022-08-23T19:20:46;4.90;;;2.05;;
12968;SDS011;6549;53.128;8.182;2022-08-23T19:23:48;2.25;;;1.67;;
12968;SDS011;6549;53.128;8.182;2022-08-23T19:26:50;5.13;;;1.95;;
12968;SDS011;6549;53.128;8.182;2022-08-23T19:29:51;2.35;;;1.67;;
12968;SDS011;6549;53.128;8.182;2022-08-23T19:32:51;4.90;;;1.93;;
12968;SDS011;6549;53.128;8.182;2022-08-23T19:35:52;2.97;;;1.70;;
12968;SDS011;6549;53.128;8.182;2022-08-23T19:38:52;3.13;;;1.80;;
12968;SDS011;6549;53.128;8.182;2022-08-23T19:41:55;3.28;;;2.00;;
12968;SDS011;6549;53.128;8.182;2022-08-23T19:44:56;2.83;;;1.85;;
12968;SDS011;6549;53.128;8.182;2022-08-23T19:47:57;4.15;;;1.90;;
12968;SDS011;6549;53.128;8.182;2022-08-23T19:50:58;4.25;;;1.80;;
12968;SDS011;6549;53.128;8.182;2022-08-23T19:53:59;5.78;;;1.85;;
12968;SDS011;6549;53.128;8.182;2022-08-23T19:57:05;6.07;;;2.17;;
12968;SDS011;6549;53.128;8.182;2022-08-23T20:00:08;3.47;;;1.77;;
12968;SDS011;6549;53.128;8.182;2022-08-23T20:03:13;3.60;;;2.00;;
12968;SDS011;6549;53.128;8.182;2022-08-23T20:06:13;7.55;;;1.90;;
12968;SDS011;6549;53.128;8.182;2022-08-23T20:09:14;3.38;;;2.10;;
12968;SDS011;6549;53.128;8.182;2022-08-23T20:12:16;3.60;;;1.90;;
12968;SDS011;6549;53.128;8.182;2022-08-23T20:15:18;2.47;;;1.70;;
12968;SDS011;6549;53.128;8.182;2022-08-23T20:18:18;4.22;;;2.08;;
12968;SDS011;6549;53.128;8.182;2022-08-23T20:21:19;2.17;;;1.70;;
12968;SDS011;6549;53.128;8.182;2022-08-23T20:24:19;5.28;;;1.73;;
12968;SDS011;6549;53.128;8.182;2022-08-23T20:27:20;4.10;;;2.00;;